Time;durP1;ratioP1;P1;durP2;ratioP2;P2;SDS_P1;SDS_P2;PMS_P1;PMS_P2;Temp;Humidity;BMP_temperature;BMP_pressure;BME280_temperature;BME280_humidity;BME280_pressure;Samples;Min_cycle;Max_cycle;Signal;HPM_P1;HPM_P2
2021/10/22 00:00:13;;;;;;;2.75;0.68;;;9.00;99.90;;;;;;5073937;28;20051;-68
2021/10/22 00:02:39;;;;;;;0.63;0.40;;;9.10;99.90;;;;;;5073635;28;20048;-68
2021/10/22 00:05:05;;;;;;;0.88;0.45;;;9.20;99.90;;;;;;5072812;28;20021;-67
2021/10/22 00:07:31;;;;;;;0.82;0.80;;;9.10;99.90;;;;;;5074011;28;20518;-67
2021/10/22 00:09:57;;;;;;;0.60;0.60;;;9.10;99.90;;;;;;5075044;28;20050;-67
2021/10/22 00:12:23;;;;;;;1.30;0.60;;;9.10;99.90;;;;;;5074508;28;20099;-72
2021/10/22 00:14:48;;;;;;;0.60;0.57;;;9.00;99.90;;;;;;5073749;28;20045;-68
2021/10/22 00:17:14;;;;;;;1.25;0.50;;;9.20;99.90;;;;;;5073297;28;20024;-65
2021/10/22 00:19:40;;;;;;;0.68;0.63;;;9.10;99.90;;;;;;5073923;28;20143;-67
2021/10/22 00:22:06;;;;;;;0.50;0.50;;;9.00;99.90;;;;;;5074051;28;20067;-67
2021/10/22 00:24:32;;;;;;;1.23;0.50;;;9.00;99.90;;;;;;5073570;28;20070;-69
2021/10/22 00:26:58;;;;;;;1.40;1.17;;;9.00;99.90;;;;;;5073129;28;20032;-69
2021/10/22 00:29:23;;;;;;;1.95;0.80;;;9.10;99.90;;;;;;5072663;28;20024;-69
2021/10/22 00:31:49;;;;;;;0.63;0.50;;;9.10;99.90;;;;;;5072548;28;20031;-65
2021/10/22 00:34:15;;;;;;;3.75;1.02;;;9.00;99.90;;;;;;5071935;28;20025;-66
2021/10/22 00:36:41;;;;;;;2.45;0.70;;;8.90;99.90;;;;;;5071627;28;20028;-66
2021/10/22 00:39:07;;;;;;;1.13;0.80;;;9.10;99.90;;;;;;5072045;28;20024;-68
2021/10/22 00:41:34;;;;;;;2.45;0.82;;;9.10;99.90;;;;;;5072358;28;20036;-66
2021/10/22 00:43:59;;;;;;;1.83;0.70;;;9.00;99.90;;;;;;5072205;28;20039;-66
2021/10/22 00:46:29;;;;;;;2.05;0.75;;;9.00;99.90;;;;;;5071843;28;20525;-65
2021/10/22 00:48:57;;;;;;;0.90;0.70;;;9.00;99.90;;;;;;5072833;28;20040;-65
2021/10/22 00:51:23;;;;;;;1.85;0.63;;;9.00;99.90;;;;;;5072128;28;20551;-65
2021/10/22 00:53:49;;;;;;;4.80;0.98;;;8.90;99.90;;;;;;5072497;28;20025;-65
2021/10/22 00:56:16;;;;;;;2.83;0.70;;;8.90;99.90;;;;;;5071565;28;20143;-65
2021/10/22 00:58:42;;;;;;;2.45;0.85;;;8.90;99.90;;;;;;5071993;28;20029;-66
2021/10/22 01:01:08;;;;;;;2.03;1.00;;;9.00;99.90;;;;;;5072463;28;20020;-66
2021/10/22 01:03:34;;;;;;;2.90;1.02;;;9.00;99.90;;;;;;5072206;28;20039;-65
2021/10/22 01:06:01;;;;;;;1.88;0.73;;;9.00;99.90;;;;;;5070906;28;20406;-65
2021/10/22 01:08:29;;;;;;;3.65;1.17;;;9.00;99.90;;;;;;5072464;28;20063;-65
2021/10/22 01:10:55;;;;;;;1.75;0.73;;;9.00;99.90;;;;;;5072128;28;20157;-65
2021/10/22 01:13:21;;;;;;;1.52;0.88;;;9.00;99.90;;;;;;5072254;28;20112;-65
2021/10/22 01:15:47;;;;;;;0.70;0.70;;;9.00;99.90;;;;;;5071638;28;20116;-65
2021/10/22 01:18:12;;;;;;;0.98;0.82;;;9.00;99.90;;;;;;5072051;28;20025;-65
2021/10/22 01:20:41;;;;;;;1.25;1.10;;;8.90;99.90;;;;;;5071592;28;20024;-65
2021/10/22 01:23:08;;;;;;;2.55;0.90;;;8.90;99.90;;;;;;5072130;28;20032;-65
2021/10/22 01:25:34;;;;;;;2.53;1.02;;;8.90;99.90;;;;;;5071084;28;20027;-65
2021/10/22 01:28:01;;;;;;;2.33;0.95;;;8.90;99.90;;;;;;5071717;28;20036;-64
2021/10/22 01:30:29;;;;;;;1.38;0.90;;;8.90;99.90;;;;;;5072176;28;20529;-65
2021/10/22 01:33:06;;;;;;;1.00;0.98;;;8.90;99.90;;;;;;5072902;28;20040;-66
2021/10/22 01:35:32;;;;;;;1.27;1.00;;;8.90;99.90;;;;;;5071547;28;20035;-66
2021/10/22 01:37:59;;;;;;;1.58;1.02;;;8.90;99.90;;;;;;5072206;28;20037;-67
2021/10/22 01:40:25;;;;;;;2.17;1.08;;;8.90;99.90;;;;;;5071478;28;20024;-67
2021/10/22 01:42:51;;;;;;;1.20;1.10;;;8.80;99.90;;;;;;5053643;28;20021;-67
2021/10/22 01:45:17;;;;;;;2.00;1.70;;;8.80;99.90;;;;;;5071515;28;20025;-66
2021/10/22 01:47:43;;;;;;;2.33;1.05;;;8.90;99.90;;;;;;5072047;28;20047;-66
2021/10/22 01:50:09;;;;;;;3.63;0.98;;;8.80;99.90;;;;;;5071359;28;20393;-66
2021/10/22 01:52:34;;;;;;;0.80;0.80;;;8.90;99.90;;;;;;5071701;28;20086;-66
2021/10/22 01:55:00;;;;;;;2.03;1.10;;;8.90;99.90;;;;;;5070973;28;20031;-65
2021/10/22 01:57:27;;;;;;;3.53;1.52;;;8.90;99.90;;;;;;5070139;28;20031;-67
2021/10/22 01:59:53;;;;;;;2.60;1.02;;;8.90;99.90;;;;;;5071782;28;20035;-66
2021/10/22 02:02:19;;;;;;;1.65;1.33;;;8.90;99.90;;;;;;5070579;28;20024;-66
2021/10/22 02:04:45;;;;;;;2.60;1.20;;;8.90;99.90;;;;;;5071693;28;20045;-67
2021/10/22 02:07:11;;;;;;;2.60;1.35;;;8.90;99.90;;;;;;5076061;28;20047;-66
2021/10/22 02:09:37;;;;;;;4.75;1.50;;;8.90;99.90;;;;;;5079045;28;20463;-66
2021/10/22 02:12:04;;;;;;;3.05;1.05;;;8.90;99.90;;;;;;5089274;28;20014;-65
2021/10/22 02:14:29;;;;;;;2.20;1.30;;;8.90;99.90;;;;;;5093750;22;20052;-64
2021/10/22 02:16:55;;;;;;;2.25;1.30;;;9.00;99.90;;;;;;5042650;28;20025;-64
2021/10/22 02:19:21;;;;;;;4.07;1.70;;;8.90;99.90;;;;;;5051148;28;20083;-65
2021/10/22 02:21:46;;;;;;;3.10;1.23;;;8.90;99.90;;;;;;5051285;28;20499;-64
2021/10/22 02:24:12;;;;;;;4.03;1.20;;;8.90;99.90;;;;;;5050754;28;20056;-64
2021/10/22 02:26:38;;;;;;;3.13;1.20;;;8.90;99.90;;;;;;5050267;28;20108;-64
2021/10/22 02:29:03;;;;;;;2.40;1.00;;;8.90;99.90;;;;;;5050764;28;20029;-65
2021/10/22 02:31:29;;;;;;;2.35;1.13;;;8.90;99.90;;;;;;5051159;28;20105;-65
2021/10/22 02:33:55;;;;;;;1.02;0.90;;;8.80;99.90;;;;;;5051044;28;20120;-64
2021/10/22 02:36:21;;;;;;;4.22;1.38;;;8.70;99.90;;;;;;5050882;28;20036;-65
2021/10/22 02:38:47;;;;;;;3.05;1.08;;;8.70;99.90;;;;;;5051521;28;20124;-64
2021/10/22 02:41:13;;;;;;;2.45;1.17;;;8.80;99.90;;;;;;5051420;28;20021;-65
2021/10/22 02:43:39;;;;;;;2.85;0.95;;;8.80;99.90;;;;;;5047541;28;20036;-65
2021/10/22 02:46:04;;;;;;;3.13;1.30;;;8.70;99.90;;;;;;5030461;28;20459;-65
2021/10/22 02:48:30;;;;;;;2.85;0.95;;;8.70;99.90;;;;;;5031151;28;20105;-65
2021/10/22 02:50:56;;;;;;;3.53;1.63;;;8.70;99.90;;;;;;5031427;28;20060;-66
2021/10/22 02:53:22;;;;;;;3.35;1.30;;;8.70;99.90;;;;;;5030928;28;20021;-65
2021/10/22 02:55:48;;;;;;;3.17;1.30;;;8.70;99.90;;;;;;5030484;28;20115;-65
2021/10/22 02:58:13;;;;;;;5.47;1.20;;;8.70;99.90;;;;;;5031042;28;20680;-65
2021/10/22 03:00:39;;;;;;;5.55;1.33;;;8.70;99.90;;;;;;5031959;28;20471;-65
2021/10/22 03:03:05;;;;;;;4.15;1.00;;;8.60;99.90;;;;;;5034576;28;20025;-66
2021/10/22 03:05:31;;;;;;;4.78;1.25;;;8.60;99.90;;;;;;5034330;28;20075;-65
2021/10/22 03:07:57;;;;;;;5.07;1.10;;;8.60;99.90;;;;;;5035228;28;20072;-65
2021/10/22 03:10:23;;;;;;;5.03;1.30;;;8.60;99.90;;;;;;5034459;28;20037;-64
2021/10/22 03:12:49;;;;;;;7.28;1.48;;;8.70;99.90;;;;;;5016651;28;20025;-65
2021/10/22 03:15:16;;;;;;;7.93;1.10;;;8.70;99.90;;;;;;5033348;28;20037;-65
2021/10/22 03:17:42;;;;;;;8.73;1.67;;;8.60;99.90;;;;;;5034188;28;20033;-64
2021/10/22 03:20:08;;;;;;;6.85;1.15;;;8.60;99.90;;;;;;5034221;28;20033;-64
2021/10/22 03:22:35;;;;;;;4.82;1.30;;;8.60;99.90;;;;;;5033890;28;20136;-63
2021/10/22 03:25:01;;;;;;;2.25;1.13;;;8.60;99.90;;;;;;5033275;28;20030;-65
2021/10/22 03:27:27;;;;;;;5.43;1.42;;;8.60;99.90;;;;;;5034021;28;20025;-65
2021/10/22 03:29:54;;;;;;;2.58;1.00;;;8.60;99.90;;;;;;5033699;28;20034;-65
2021/10/22 03:32:20;;;;;;;3.72;1.27;;;8.60;99.90;;;;;;5033890;28;20049;-65
2021/10/22 03:34:45;;;;;;;5.20;1.15;;;8.60;99.90;;;;;;5033100;28;20126;-64
2021/10/22 03:37:12;;;;;;;6.82;1.95;;;8.60;99.90;;;;;;5033544;28;20036;-65
2021/10/22 03:39:38;;;;;;;8.82;1.98;;;8.60;99.90;;;;;;5033918;28;20381;-65
2021/10/22 03:42:04;;;;;;;6.20;1.35;;;8.40;99.90;;;;;;5033831;28;20032;-65
2021/10/22 03:44:30;;;;;;;5.10;1.13;;;8.30;99.90;;;;;;5032986;28;20025;-64
2021/10/22 03:46:56;;;;;;;5.30;1.13;;;8.30;99.90;;;;;;5033674;28;20538;-64
2021/10/22 03:49:22;;;;;;;6.78;1.27;;;8.20;99.90;;;;;;5033505;28;20029;-65
2021/10/22 03:51:47;;;;;;;5.43;1.40;;;8.10;99.90;;;;;;5033464;28;20032;-65
2021/10/22 03:54:13;;;;;;;8.57;1.25;;;7.90;99.90;;;;;;5033374;28;20029;-65
2021/10/22 03:56:39;;;;;;;11.52;2.08;;;7.90;99.90;;;;;;5032763;28;20061;-65
2021/10/22 03:59:04;;;;;;;4.05;1.10;;;7.80;99.90;;;;;;5033230;28;20088;-64
2021/10/22 04:01:30;;;;;;;7.93;1.20;;;7.60;99.90;;;;;;5033337;28;20025;-64
2021/10/22 04:03:56;;;;;;;9.75;1.73;;;7.50;99.90;;;;;;5033032;28;20029;-65
2021/10/22 04:06:21;;;;;;;5.90;1.20;;;7.40;99.90;;;;;;5032737;28;20507;-64
2021/10/22 04:08:47;;;;;;;13.38;1.58;;;7.30;99.90;;;;;;5033303;28;20490;-63
2021/10/22 04:11:13;;;;;;;8.43;1.80;;;7.20;99.90;;;;;;5033173;28;20737;-64
2021/10/22 04:13:38;;;;;;;8.45;2.55;;;7.10;99.90;;;;;;5032968;28;20041;-64
2021/10/22 04:16:04;;;;;;;10.68;1.73;;;7.00;99.90;;;;;;5014254;28;20025;-65
2021/10/22 04:18:30;;;;;;;10.57;1.98;;;6.80;99.90;;;;;;5032879;28;20083;-64
2021/10/22 04:20:56;;;;;;;11.60;2.38;;;6.80;99.90;;;;;;5032900;28;20132;-64
2021/10/22 04:23:21;;;;;;;8.02;2.50;;;6.70;99.90;;;;;;5032909;28;20053;-63
2021/10/22 04:25:49;;;;;;;6.25;1.80;;;6.60;99.90;;;;;;5032428;28;20483;-63
2021/10/22 04:28:16;;;;;;;7.47;2.13;;;6.50;99.90;;;;;;5032981;28;20104;-63
2021/10/22 04:30:42;;;;;;;10.98;2.53;;;6.50;99.90;;;;;;5031724;28;20211;-64
2021/10/22 04:33:07;;;;;;;7.53;2.47;;;6.40;99.90;;;;;;5032278;28;20031;-65
2021/10/22 04:35:33;;;;;;;8.45;2.38;;;6.40;99.90;;;;;;5031791;28;20033;-64
2021/10/22 04:38:13;;;;;;;6.15;2.17;;;6.30;99.90;;;;;;5032515;28;20034;-65
2021/10/22 04:40:41;;;;;;;7.90;2.58;;;6.20;99.90;;;;;;5032603;28;20155;-63
2021/10/22 04:43:11;;;;;;;6.57;2.30;;;6.20;99.90;;;;;;5027503;28;20113;-72
2021/10/22 04:45:38;;;;;;;9.63;2.20;;;6.00;99.90;;;;;;5017383;28;20068;-72
2021/10/22 04:48:08;;;;;;;6.13;2.20;;;6.00;99.90;;;;;;5002552;28;20126;-71
2021/10/22 04:50:39;;;;;;;5.70;1.80;;;6.00;99.90;;;;;;5032021;28;20484;-71
2021/10/22 04:53:06;;;;;;;7.47;2.50;;;5.90;99.90;;;;;;5032139;28;20036;-71
2021/10/22 04:55:32;;;;;;;9.52;2.17;;;5.80;99.90;;;;;;5031189;28;20033;-71
2021/10/22 04:57:57;;;;;;;9.07;1.90;;;5.80;99.90;;;;;;5031695;28;20025;-71
2021/10/22 05:00:23;;;;;;;8.73;2.08;;;5.70;99.90;;;;;;5031758;28;20025;-72
2021/10/22 05:02:49;;;;;;;14.05;2.42;;;5.70;99.90;;;;;;5032207;28;20025;-72
2021/10/22 05:05:15;;;;;;;13.90;2.95;;;5.60;99.90;;;;;;5030924;28;20030;-71
2021/10/22 05:07:42;;;;;;;14.85;2.30;;;5.60;99.90;;;;;;5039722;28;20032;-71
2021/10/22 05:10:08;;;;;;;15.25;2.58;;;5.60;99.90;;;;;;5032001;28;20030;-71
2021/10/22 05:12:35;;;;;;;6.75;1.92;;;5.50;99.90;;;;;;5032311;28;20021;-70
2021/10/22 05:15:02;;;;;;;14.93;2.72;;;5.50;99.90;;;;;;5030476;28;20033;-71
2021/10/22 05:17:28;;;;;;;7.82;1.80;;;5.40;99.90;;;;;;5032252;28;20037;-71
2021/10/22 05:19:55;;;;;;;17.08;2.45;;;5.40;99.90;;;;;;5031956;28;20423;-72
2021/10/22 05:22:21;;;;;;;14.45;2.28;;;5.40;99.90;;;;;;5031974;28;20446;-71
2021/10/22 05:24:47;;;;;;;17.08;2.40;;;5.40;99.90;;;;;;5030603;28;20029;-70
2021/10/22 05:27:13;;;;;;;11.05;1.92;;;5.30;99.90;;;;;;5031340;28;20100;-70
2021/10/22 05:29:38;;;;;;;13.82;2.78;;;5.30;99.90;;;;;;5013562;28;20539;-70
2021/10/22 05:32:04;;;;;;;15.38;2.03;;;5.30;99.90;;;;;;5031601;28;20108;-71
2021/10/22 05:34:30;;;;;;;12.48;3.15;;;5.10;99.90;;;;;;5030847;28;20475;-71
2021/10/22 05:36:56;;;;;;;15.95;2.40;;;5.10;99.90;;;;;;5031129;28;20083;-70
2021/10/22 05:39:22;;;;;;;12.23;2.28;;;5.10;99.90;;;;;;5040333;28;20078;-70
2021/10/22 05:41:48;;;;;;;14.98;2.10;;;5.10;99.90;;;;;;5051612;28;20121;-71
2021/10/22 05:44:17;;;;;;;9.68;2.35;;;5.00;99.90;;;;;;5042622;28;20438;-71
2021/10/22 05:46:47;;;;;;;11.30;2.53;;;5.00;99.90;;;;;;5030892;28;20108;-71
2021/10/22 05:49:13;;;;;;;6.65;2.20;;;5.00;99.90;;;;;;5031377;28;20052;-71
2021/10/22 05:51:39;;;;;;;12.90;2.90;;;5.00;99.90;;;;;;5031556;28;20014;-72
2021/10/22 05:54:05;;;;;;;9.70;2.35;;;5.00;99.90;;;;;;5031274;28;20017;-71
2021/10/22 05:56:31;;;;;;;12.82;2.33;;;5.00;99.90;;;;;;5030168;28;20057;-71
2021/10/22 05:58:56;;;;;;;11.55;1.85;;;4.90;99.90;;;;;;5032564;28;20037;-71
2021/10/22 06:01:23;;;;;;;13.20;2.65;;;4.90;99.90;;;;;;5032382;28;20025;-70
2021/10/22 06:03:49;;;;;;;12.93;2.22;;;4.80;99.90;;;;;;5030019;28;20387;-71
2021/10/22 06:06:15;;;;;;;13.95;2.17;;;4.80;99.90;;;;;;5028369;28;20117;-71
2021/10/22 06:08:41;;;;;;;10.55;2.20;;;4.80;99.90;;;;;;5031514;28;20108;-73
2021/10/22 06:11:11;;;;;;;11.43;2.50;;;4.70;99.90;;;;;;5028635;28;20468;-70
2021/10/22 06:13:41;;;;;;;13.73;2.50;;;4.70;99.90;;;;;;5019536;28;20034;-70
2021/10/22 06:16:09;;;;;;;8.25;2.40;;;4.70;99.90;;;;;;5023813;28;20030;-69
2021/10/22 06:18:44;;;;;;;13.65;2.60;;;4.80;99.90;;;;;;5011029;28;20030;-70
2021/10/22 06:21:17;;;;;;;8.65;2.22;;;4.70;99.90;;;;;;5011020;28;20033;-69
2021/10/22 06:23:53;;;;;;;8.50;2.60;;;4.70;99.90;;;;;;5011074;28;20640;-68
2021/10/22 06:26:24;;;;;;;12.23;2.40;;;4.70;99.90;;;;;;5017999;28;20013;-61
2021/10/22 06:28:51;;;;;;;12.45;2.45;;;4.80;99.90;;;;;;5031002;28;20160;-65
2021/10/22 06:31:17;;;;;;;15.00;2.80;;;4.80;99.90;;;;;;5025664;28;20053;-58
2021/10/22 06:33:43;;;;;;;8.55;2.40;;;4.80;99.90;;;;;;5021455;28;20487;-60
2021/10/22 06:36:09;;;;;;;12.60;2.45;;;4.90;99.90;;;;;;5031647;28;20051;-61
2021/10/22 06:38:35;;;;;;;17.92;2.95;;;4.90;99.90;;;;;;5034732;28;20151;-59
2021/10/22 06:41:02;;;;;;;9.43;2.58;;;5.00;99.90;;;;;;5034554;28;20030;-56
2021/10/22 06:43:28;;;;;;;15.27;2.53;;;5.00;99.90;;;;;;5033655;28;20021;-59
2021/10/22 06:45:53;;;;;;;11.15;2.67;;;5.00;99.90;;;;;;5034418;28;20392;-60
2021/10/22 06:48:20;;;;;;;12.07;2.97;;;5.00;99.90;;;;;;5035487;28;20032;-60
2021/10/22 06:50:46;;;;;;;12.63;2.65;;;5.10;99.90;;;;;;5034201;28;20033;-60
2021/10/22 06:53:12;;;;;;;10.18;3.17;;;5.00;99.90;;;;;;5034719;28;20044;-60
2021/10/22 06:55:38;;;;;;;10.23;3.20;;;5.00;99.90;;;;;;5033753;28;20415;-59
2021/10/22 06:58:05;;;;;;;15.98;3.85;;;5.20;99.90;;;;;;5034374;28;20025;-60
2021/10/22 07:00:34;;;;;;;9.80;3.75;;;5.30;99.90;;;;;;5034486;28;20091;-60
2021/10/22 07:03:00;;;;;;;14.98;4.57;;;5.20;99.90;;;;;;5034156;28;20029;-59
2021/10/22 07:08:03;;;;;;;16.70;4.68;;;5.50;99.90;;;;;;5034401;28;20036;-60
2021/10/22 07:10:30;;;;;;;15.75;4.47;;;5.60;99.90;;;;;;5034234;28;20056;-60
2021/10/22 07:12:57;;;;;;;20.05;4.50;;;5.70;99.90;;;;;;5034264;28;20534;-59
2021/10/22 07:15:23;;;;;;;15.50;4.40;;;5.70;99.90;;;;;;5033073;28;20045;-60
2021/10/22 07:17:48;;;;;;;14.88;4.10;;;5.80;99.90;;;;;;5033905;28;20026;-60
2021/10/22 07:20:15;;;;;;;13.23;4.10;;;5.80;99.90;;;;;;5033808;28;20033;-59
2021/10/22 07:22:50;;;;;;;12.23;4.50;;;5.90;99.90;;;;;;5033706;28;20029;-60
2021/10/22 07:25:21;;;;;;;18.45;4.43;;;6.00;99.90;;;;;;5033141;28;20026;-60
2021/10/22 07:27:48;;;;;;;18.48;4.22;;;6.10;99.90;;;;;;5034132;28;20038;-60
2021/10/22 07:30:14;;;;;;;12.52;4.18;;;6.30;99.90;;;;;;5033826;28;20018;-59
2021/10/22 07:32:40;;;;;;;12.15;4.30;;;6.50;99.90;;;;;;5034340;28;20476;-59
2021/10/22 07:35:07;;;;;;;13.18;4.03;;;6.80;99.90;;;;;;5033000;28;20040;-62
2021/10/22 07:37:33;;;;;;;19.02;4.20;;;6.90;99.90;;;;;;5015502;28;20487;-58
2021/10/22 07:39:58;;;;;;;6.90;3.63;;;7.00;99.90;;;;;;5033783;28;20028;-61
2021/10/22 07:42:25;;;;;;;7.15;3.00;;;7.20;99.90;;;;;;5033764;28;20515;-58
2021/10/22 07:44:56;;;;;;;6.85;2.92;;;7.40;99.90;;;;;;5032740;28;20373;-60
2021/10/22 07:47:22;;;;;;;3.03;2.20;;;8.70;99.90;;;;;;5033335;28;20083;-60
2021/10/22 07:49:49;;;;;;;10.48;2.60;;;10.70;99.90;;;;;;5033123;28;20032;-58
2021/10/22 07:52:20;;;;;;;6.65;2.40;;;11.80;99.90;;;;;;5033357;28;20021;-60
2021/10/22 07:54:46;;;;;;;8.20;2.08;;;11.90;99.90;;;;;;5032773;28;20076;-61
2021/10/22 07:57:12;;;;;;;3.13;1.55;;;13.10;99.90;;;;;;5033180;28;20119;-62
2021/10/22 07:59:38;;;;;;;5.60;1.90;;;15.20;99.90;;;;;;5033311;28;20643;-60
2021/10/22 08:02:09;;;;;;;6.53;1.63;;;16.90;99.90;;;;;;5033325;28;20026;-60
2021/10/22 08:04:35;;;;;;;4.55;1.67;;;18.10;99.90;;;;;;5032718;28;20030;-61
2021/10/22 08:07:00;;;;;;;3.80;1.73;;;18.90;96.90;;;;;;5033186;28;20033;-61
2021/10/22 08:09:26;;;;;;;5.63;1.73;;;19.20;96.20;;;;;;5033481;28;20498;-61
2021/10/22 08:11:52;;;;;;;3.13;1.45;;;18.80;94.50;;;;;;5033320;28;20045;-60
2021/10/22 08:14:19;;;;;;;9.13;1.52;;;18.60;94.00;;;;;;5072397;22;20016;-64
2021/10/22 08:16:45;;;;;;;3.92;1.60;;;18.60;94.40;;;;;;5053825;28;20079;-61
2021/10/22 08:19:11;;;;;;;7.20;1.92;;;18.80;95.40;;;;;;5051801;28;20059;-64
2021/10/22 08:24:06;;;;;;;4.13;1.75;;;18.90;93.70;;;;;;5050972;28;20025;-63
2021/10/22 08:26:32;;;;;;;6.35;1.88;;;18.40;94.50;;;;;;5052058;28;20025;-63
2021/10/22 08:28:58;;;;;;;6.50;1.75;;;18.80;94.00;;;;;;5053067;28;20035;-62
2021/10/22 08:31:24;;;;;;;7.13;1.90;;;18.80;94.00;;;;;;5052536;28;20449;-63
2021/10/22 08:33:50;;;;;;;6.10;1.80;;;19.60;93.30;;;;;;5052853;28;20113;-63
2021/10/22 08:36:15;;;;;;;8.85;1.98;;;19.70;91.60;;;;;;5052053;28;20033;-63
2021/10/22 08:38:41;;;;;;;5.20;1.85;;;18.90;92.30;;;;;;5052730;28;20441;-63
2021/10/22 08:41:13;;;;;;;8.75;1.83;;;18.90;92.90;;;;;;5052753;28;20025;-62
2021/10/22 08:43:40;;;;;;;;;;;18.30;93.30;;;;;;5052743;28;20168;-62
2021/10/22 08:46:12;;;;;;;5.45;2.30;;;18.10;93.70;;;;;;5036784;28;19944;-63
2021/10/22 08:48:38;;;;;;;8.85;2.38;;;19.20;92.80;;;;;;5032836;28;20041;-62
2021/10/22 08:51:04;;;;;;;7.35;2.45;;;19.80;90.50;;;;;;5032683;28;20037;-62
2021/10/22 08:53:31;;;;;;;5.32;1.80;;;20.00;91.70;;;;;;5032791;28;20029;-63
2021/10/22 08:55:58;;;;;;;10.52;2.10;;;20.10;88.60;;;;;;5031616;28;20021;-63
2021/10/22 08:58:24;;;;;;;9.90;2.08;;;19.70;86.60;;;;;;5031714;28;20471;-63
2021/10/22 09:00:51;;;;;;;7.13;1.85;;;19.90;87.90;;;;;;5033972;28;20051;-62
2021/10/22 09:03:18;;;;;;;9.60;1.83;;;19.90;87.90;;;;;;5032949;28;20018;-63
2021/10/22 09:06:13;;;;;;;10.57;2.60;;;20.90;84.40;;;;;;5031590;28;20037;-63
2021/10/22 09:08:44;;;;;;;9.40;1.85;;;21.20;85.60;;;;;;5032138;28;20044;-63
2021/10/22 09:11:23;;;;;;;8.35;1.90;;;21.50;85.30;;;;;;5032120;28;20108;-63
2021/10/22 09:14:04;;;;;;;10.02;2.10;;;21.10;81.00;;;;;;5032572;28;20033;-64
2021/10/22 09:16:30;;;;;;;10.80;2.13;;;20.60;80.60;;;;;;5031081;28;20033;-63
2021/10/22 09:18:58;;;;;;;12.02;1.92;;;20.10;81.10;;;;;;5032214;28;20072;-63
2021/10/22 09:21:30;;;;;;;11.60;2.40;;;20.20;82.80;;;;;;5032522;28;20102;-63
2021/10/22 09:24:17;;;;;;;10.25;2.45;;;19.10;80.20;;;;;;5032782;28;20013;-62
2021/10/22 09:26:56;;;;;;;9.40;2.13;;;18.70;82.50;;;;;;5032930;28;20468;-63
2021/10/22 09:29:29;;;;;;;9.82;2.38;;;19.30;83.20;;;;;;5032147;28;20030;-64
2021/10/22 09:31:57;;;;;;;9.48;2.17;;;19.60;78.20;;;;;;5032619;28;20030;-64
2021/10/22 09:34:30;;;;;;;8.38;2.28;;;18.50;82.10;;;;;;5032554;28;20033;-62
2021/10/22 09:36:56;;;;;;;16.63;2.15;;;19.30;82.30;;;;;;5033238;28;20029;-62
2021/10/22 09:39:22;;;;;;;10.77;2.53;;;20.20;78.50;;;;;;5031801;28;20021;-63
2021/10/22 09:41:58;;;;;;;8.95;2.03;;;20.10;78.80;;;;;;5031841;28;20069;-61
2021/10/22 09:44:27;;;;;;;13.73;2.58;;;20.40;78.70;;;;;;5030769;28;20029;-62
2021/10/22 09:47:17;;;;;;;11.27;2.40;;;21.30;78.10;;;;;;5031705;28;20026;-62
2021/10/22 09:49:45;;;;;;;8.85;2.13;;;21.50;77.80;;;;;;5031947;28;20396;-61
2021/10/22 09:52:36;;;;;;;8.77;2.45;;;21.70;75.20;;;;;;5031393;28;20498;-61
2021/10/22 09:55:17;;;;;;;6.93;2.13;;;21.40;73.90;;;;;;5027011;28;20152;-62
2021/10/22 09:57:45;;;;;;;7.47;2.55;;;20.30;77.10;;;;;;5030728;28;20033;-62
2021/10/22 10:00:19;;;;;;;9.88;2.22;;;20.60;77.10;;;;;;5030822;28;20602;-62
2021/10/22 10:02:45;;;;;;;9.00;2.08;;;20.60;75.70;;;;;;5031689;28;20033;-62
2021/10/22 10:05:12;;;;;;;7.30;2.03;;;19.90;78.10;;;;;;5030011;28;20117;-62
2021/10/22 10:07:47;;;;;;;5.03;1.65;;;19.60;79.80;;;;;;5031015;28;20032;-62
2021/10/22 10:10:14;;;;;;;9.95;2.35;;;20.00;77.20;;;;;;5034253;28;20026;-62
2021/10/22 10:12:41;;;;;;;9.43;1.88;;;19.60;77.40;;;;;;5036338;28;20030;-62
2021/10/22 10:15:08;;;;;;;6.90;1.80;;;20.10;77.00;;;;;;5035621;28;20033;-62
2021/10/22 10:17:41;;;;;;;6.35;1.80;;;20.00;76.80;;;;;;5036918;28;20021;-62
2021/10/22 10:20:07;;;;;;;;;;;20.60;76.60;;;;;;5036529;28;20021;-63
2021/10/22 10:22:34;;;;;;;6.93;1.77;;;20.90;74.60;;;;;;5036599;28;19909;-62
2021/10/22 10:25:05;;;;;;;11.02;2.38;;;20.50;73.70;;;;;;5035602;28;20022;-62
2021/10/22 10:27:46;;;;;;;11.60;2.05;;;19.30;74.90;;;;;;5037203;28;20471;-61
2021/10/22 10:30:26;;;;;;;6.75;1.98;;;19.10;79.10;;;;;;5037844;28;20068;-61
2021/10/22 10:32:52;;;;;;;10.38;2.78;;;19.40;79.90;;;;;;5034037;28;20076;-62
2021/10/22 10:35:18;;;;;;;6.25;1.90;;;19.20;78.50;;;;;;5036159;28;20033;-63
2021/10/22 10:37:50;;;;;;;6.25;1.80;;;18.90;76.80;;;;;;5037774;28;20026;-62
2021/10/22 10:40:22;;;;;;;6.43;1.85;;;18.70;75.30;;;;;;5039197;28;20332;-61
2021/10/22 10:43:12;;;;;;;7.25;1.95;;;17.70;78.90;;;;;;5021685;28;20068;-62
2021/10/22 10:45:39;;;;;;;8.93;2.13;;;17.70;79.80;;;;;;5022556;28;20026;-64
2021/10/22 10:48:10;;;;;;;3.88;1.30;;;18.30;74.00;;;;;;5023276;28;20176;-63
2021/10/22 10:53:43;;;;;;;5.82;1.63;;;18.40;72.50;;;;;;4985097;28;20030;-62
2021/10/22 10:56:23;;;;;;;5.10;1.25;;;17.60;73.80;;;;;;5019824;28;20037;-63
2021/10/22 10:58:49;;;;;;;7.25;1.60;;;17.90;72.30;;;;;;5018391;28;20026;-63
2021/10/22 11:01:30;;;;;;;3.13;1.20;;;18.10;73.00;;;;;;5015478;28;20022;-63
2021/10/22 11:03:57;;;;;;;7.55;1.83;;;18.60;73.20;;;;;;5015557;28;20022;-59
2021/10/22 11:06:42;;;;;;;10.25;3.00;;;19.10;73.10;;;;;;5015358;28;20068;-63
2021/10/22 11:09:08;;;;;;;4.47;1.42;;;19.30;73.50;;;;;;5003289;28;20487;-62
2021/10/22 11:11:37;;;;;;;3.67;1.40;;;19.40;69.70;;;;;;5035772;28;20033;-62
2021/10/22 11:14:06;;;;;;;6.60;1.73;;;19.90;73.90;;;;;;5035487;28;20024;-63
2021/10/22 11:16:43;;;;;;;2.58;1.05;;;19.70;70.30;;;;;;5035008;28;20025;-61
2021/10/22 11:19:25;;;;;;;7.47;1.90;;;19.50;69.90;;;;;;5035689;28;20040;-64
2021/10/22 11:21:55;;;;;;;4.35;1.23;;;20.20;68.40;;;;;;5033924;28;20021;-62
2021/10/22 11:24:22;;;;;;;3.50;1.45;;;19.90;67.20;;;;;;5033756;28;20025;-63
2021/10/22 11:27:08;;;;;;;4.85;1.40;;;20.50;67.20;;;;;;5034065;28;20071;-63
2021/10/22 11:29:40;;;;;;;7.10;1.40;;;20.70;65.00;;;;;;5034400;28;20025;-63
2021/10/22 11:32:10;;;;;;;3.78;1.30;;;19.70;63.20;;;;;;5034540;28;20017;-62
2021/10/22 11:34:38;;;;;;;4.82;1.48;;;19.50;66.10;;;;;;5033698;28;20600;-61
2021/10/22 11:37:15;;;;;;;4.82;1.60;;;19.40;69.10;;;;;;5034634;28;20033;-64
2021/10/22 11:39:52;;;;;;;5.82;1.15;;;20.00;61.80;;;;;;5034419;28;20105;-62
2021/10/22 11:42:22;;;;;;;4.75;1.30;;;19.40;63.60;;;;;;5034328;28;20127;-62
2021/10/22 11:44:52;;;;;;;4.07;1.23;;;19.30;66.40;;;;;;5033626;28;20029;-62
2021/10/22 11:47:19;;;;;;;5.18;1.35;;;19.40;65.30;;;;;;5034459;28;20033;-63
2021/10/22 11:49:45;;;;;;;3.75;1.35;;;19.60;64.70;;;;;;5036494;28;20044;-63
2021/10/22 11:52:17;;;;;;;5.30;1.25;;;19.90;63.10;;;;;;5044961;28;20387;-64
2021/10/22 11:54:50;;;;;;;4.88;1.40;;;20.60;62.20;;;;;;5040399;28;20027;-63
2021/10/22 11:57:21;;;;;;;6.35;1.30;;;20.50;63.00;;;;;;5043712;28;20029;-63
2021/10/22 11:59:58;;;;;;;3.83;1.00;;;20.70;62.40;;;;;;5035326;28;20025;-62
2021/10/22 12:02:26;;;;;;;3.03;1.25;;;20.80;58.40;;;;;;5034191;28;20372;-63
2021/10/22 12:05:03;;;;;;;2.00;1.10;;;20.50;61.00;;;;;;5032873;28;20356;-62
2021/10/22 12:07:54;;;;;;;4.63;1.30;;;20.30;59.70;;;;;;5033501;28;20030;-62
2021/10/22 12:10:20;;;;;;;3.97;1.10;;;19.40;60.40;;;;;;5033312;28;20075;-63
2021/10/22 12:12:50;;;;;;;5.45;1.20;;;20.10;60.50;;;;;;5033579;28;20025;-63
2021/10/22 12:15:25;;;;;;;3.45;0.95;;;19.70;65.20;;;;;;5032464;28;20076;-62
2021/10/22 12:18:02;;;;;;;5.00;1.30;;;19.30;62.00;;;;;;5033140;28;20076;-62
2021/10/22 12:20:29;;;;;;;3.00;0.90;;;20.00;57.80;;;;;;5033313;28;20025;-63
2021/10/22 12:22:58;;;;;;;6.50;1.50;;;20.00;59.80;;;;;;5033302;28;20021;-63
2021/10/22 12:25:26;;;;;;;1.90;0.85;;;20.80;57.40;;;;;;5032112;28;20032;-63
2021/10/22 12:28:11;;;;;;;4.35;1.38;;;20.30;57.90;;;;;;5033027;28;20081;-63
2021/10/22 12:30:37;;;;;;;4.80;1.40;;;20.50;56.90;;;;;;5032904;28;20057;-63
2021/10/22 12:33:03;;;;;;;4.35;1.10;;;20.90;55.80;;;;;;5033000;28;20030;-61
2021/10/22 12:35:35;;;;;;;6.47;1.20;;;21.20;55.90;;;;;;5030522;28;20071;-62
2021/10/22 12:38:11;;;;;;;5.65;1.23;;;20.00;55.60;;;;;;5026495;28;20376;-62
2021/10/22 12:40:42;;;;;;;3.50;1.40;;;20.50;58.60;;;;;;5026211;28;20029;-61
2021/10/22 12:43:23;;;;;;;4.70;1.37;;;20.90;57.50;;;;;;5020570;28;20017;-74
2021/10/22 12:46:21;;;;;;;4.55;1.30;;;21.20;56.70;;;;;;5028967;28;20022;-73
2021/10/22 12:48:51;;;;;;;4.40;1.20;;;21.20;57.20;;;;;;4977183;28;20029;-74
2021/10/22 12:51:23;;;;;;;6.85;1.50;;;21.50;56.00;;;;;;5012592;28;20073;-74
2021/10/22 12:53:50;;;;;;;5.10;1.70;;;22.40;56.10;;;;;;5013166;28;20369;-74
2021/10/22 12:56:27;;;;;;;5.20;1.60;;;22.10;56.80;;;;;;5012003;28;20021;-74
2021/10/22 12:59:01;;;;;;;5.20;1.35;;;21.70;55.80;;;;;;5014073;28;20025;-74
2021/10/22 13:01:41;;;;;;;3.92;1.75;;;21.00;55.30;;;;;;5017516;28;20100;-74
2021/10/22 13:04:10;;;;;;;3.00;1.27;;;20.40;57.70;;;;;;5032406;28;20095;-74